Temp: 16.2°C   Baro: 1011.8mb
  Wind: 16.1mph   Dir: WSW (256°)
  Rain: 2.0mm (0.0mm/hr)
  Solar: 281W/m2  Hum: 69%
 
Bath Spa Weather Station Historical Data
Daily Summary for June 29, 2019 Units:  Both    English   Metric
Daily Weekly Monthly Yearly Custom
  High: Low: Average:
Temperature: 74.8 °F /  23.8 °C 53.4 °F /  11.9 °C 64.7 °F /  18.2 °C
Dew Point: 56.4 °F /  13.6 °C 50.5 °F /  10.3 °C 53.5 °F /  11.9 °C
Humidity: 91% 46.5% 69%
Wind Speed: 10.8mph /  17.4km/h - 3.4mph /  5.5km/h
Wind Gust: 19mph /  30.6km/h - -
Wind- - South
Pressure: 29.80 in /  1009 hPa 29.68 in /  1005 hPa -
Precipitation: 0.00 in /  0 mm    
Historical Graphs
 
 
Tabular Data for June 29, 2019
Time Temperature Dew Point Pressure Wind Wind Speed Wind Gust Humidity Rainfall Rate (Hourly) solar
00:04 58.3 °F /  14.6 °C 53.4 °F /  11.9 °C 29.78in /  1008.4hPa Calm     84% 0.00in /  0mm 0 W/m2
00:09 58.3 °F /  14.6 °C 53.4 °F /  11.9 °C 29.78in /  1008.4hPa Calm     84% 0.00in /  0mm 0 W/m2
00:14 58.3 °F /  14.6 °C 53.4 °F /  11.9 °C 29.78in /  1008.4hPa Calm     84% 0.00in /  0mm 0 W/m2
00:19 58.3 °F /  14.6 °C 53.3 °F /  11.8 °C 29.78in /  1008.4hPa Calm     84% 0.00in /  0mm 0 W/m2
00:24 58.1 °F /  14.5 °C 53.5 °F /  11.9 °C 29.78in /  1008.4hPa Calm     84.6% 0.00in /  0mm 0 W/m2
00:29 58.1 °F /  14.5 °C 53.6 °F /  12 °C 29.78in /  1008.4hPa Calm     85% 0.00in /  0mm 0 W/m2
00:34 57.9 °F /  14.4 °C 53.4 °F /  11.9 °C 29.78in /  1008.4hPa Calm     85% 0.00in /  0mm 0 W/m2
00:39 57.9 °F /  14.4 °C 53.4 °F /  11.9 °C 29.78in /  1008.4hPa Calm     85% 0.00in /  0mm 0 W/m2
00:44 57.9 °F /  14.4 °C 53.4 °F /  11.9 °C 29.78in /  1008.4hPa Calm     85% 0.00in /  0mm 0 W/m2
00:49 57.9 °F /  14.4 °C 53.4 °F /  11.9 °C 29.78in /  1008.4hPa Calm     85% 0.00in /  0mm 0 W/m2
00:54 57.9 °F /  14.4 °C 53.4 °F /  11.9 °C 29.78in /  1008.4hPa Calm     85% 0.00in /  0mm 0 W/m2
00:59 57.9 °F /  14.4 °C 53.7 °F /  12.1 °C 29.78in /  1008.4hPa Calm     85.8% 0.00in /  0mm 0 W/m2
01:04 57.9 °F /  14.4 °C 53.8 °F /  12.1 °C 29.78in /  1008.4hPa WNW 0.2mph /  0.3km/h 2mph /  3.2km/h 86% 0.00in /  0mm 0 W/m2
01:09 57.8 °F /  14.3 °C 53.7 °F /  12.1 °C 29.78in /  1008.4hPa WNW 0.5mph /  0.8km/h 2mph /  3.2km/h 86% 0.00in /  0mm 0 W/m2
01:14 57.7 °F /  14.3 °C 53.6 °F /  12 °C 29.78in /  1008.4hPa WNW 0.2mph /  0.3km/h 2mph /  3.2km/h 86% 0.00in /  0mm 0 W/m2
01:19 57.7 °F /  14.3 °C 53.5 °F /  11.9 °C 29.78in /  1008.4hPa Calm   1mph /  1.6km/h 86% 0.00in /  0mm 0 W/m2
01:24 57.6 °F /  14.2 °C 53.4 °F /  11.9 °C 29.78in /  1008.4hPa Calm     86% 0.00in /  0mm 0 W/m2
01:29 57.3 °F /  14.1 °C 53.2 °F /  11.8 °C 29.78in /  1008.4hPa Calm     86% 0.00in /  0mm 0 W/m2
01:34 57.2 °F /  14 °C 53.1 °F /  11.7 °C 29.78in /  1008.4hPa WNW 0.1mph /  0.2km/h 1mph /  1.6km/h 86% 0.00in /  0mm 0 W/m2
01:39 57.1 °F /  13.9 °C 53 °F /  11.7 °C 29.78in /  1008.4hPa Calm     86% 0.00in /  0mm 0 W/m2
01:44 57 °F /  13.9 °C 52.9 °F /  11.6 °C 29.78in /  1008.4hPa Calm     86% 0.00in /  0mm 0 W/m2
01:49 56.9 °F /  13.8 °C 53.1 °F /  11.7 °C 29.78in /  1008.4hPa Calm     87% 0.00in /  0mm 0 W/m2
01:54 56.8 °F /  13.8 °C 53.1 °F /  11.7 °C 29.78in /  1008.4hPa Calm     87% 0.00in /  0mm 0 W/m2
01:59 56.8 °F /  13.8 °C 53 °F /  11.7 °C 29.78in /  1008.4hPa Calm     87% 0.00in /  0mm 0 W/m2
02:04 56.7 °F /  13.7 °C 52.9 °F /  11.6 °C 29.78in /  1008.4hPa Calm     87% 0.00in /  0mm 0 W/m2
02:09 56.7 °F /  13.7 °C 52.9 °F /  11.6 °C 29.78in /  1008.4hPa Calm     87% 0.00in /  0mm 0 W/m2
02:14 56.7 °F /  13.7 °C 52.9 °F /  11.6 °C 29.78in /  1008.4hPa Calm     87% 0.00in /  0mm 0 W/m2
02:19 56.6 °F /  13.7 °C 52.8 °F /  11.6 °C 29.78in /  1008.4hPa Calm     87% 0.00in /  0mm 0 W/m2
02:24 56.5 °F /  13.6 °C 52.8 °F /  11.6 °C 29.78in /  1008.4hPa Calm     87.5% 0.00in /  0mm 0 W/m2
02:29 56.5 °F /  13.6 °C 52.9 °F /  11.6 °C 29.78in /  1008.4hPa Calm     88% 0.00in /  0mm 0 W/m2
02:34 56.4 °F /  13.6 °C 52.9 °F /  11.6 °C 29.78in /  1008.4hPa Calm     88% 0.00in /  0mm 0 W/m2
02:39 56.1 °F /  13.4 °C 52.7 °F /  11.5 °C 29.78in /  1008.4hPa Calm     88% 0.00in /  0mm 0 W/m2
02:44 56 °F /  13.3 °C 52.6 °F /  11.4 °C 29.78in /  1008.4hPa Calm     88% 0.00in /  0mm 0 W/m2
02:49 55.9 °F /  13.3 °C 52.5 °F /  11.4 °C 29.78in /  1008.4hPa Calm     88% 0.00in /  0mm 0 W/m2
02:54 55.8 °F /  13.2 °C 52.3 °F /  11.3 °C 29.77in /  1008hPa Calm     88% 0.00in /  0mm 0 W/m2
02:59 55.7 °F /  13.2 °C 52.2 °F /  11.2 °C 29.77in /  1008hPa Calm     88% 0.00in /  0mm 0 W/m2
03:04 55.4 °F /  13 °C 52 °F /  11.1 °C 29.77in /  1008hPa Calm     88% 0.00in /  0mm 0 W/m2
03:09 55.4 °F /  13 °C 52 °F /  11.1 °C 29.77in /  1008hPa Calm   1mph /  1.6km/h 88% 0.00in /  0mm 0 W/m2
03:14 55.4 °F /  13 °C 52.2 °F /  11.2 °C 29.77in /  1008hPa Calm     89% 0.00in /  0mm 0 W/m2
03:19 55.4 °F /  13 °C 52.2 °F /  11.2 °C 29.77in /  1008hPa Calm     89% 0.00in /  0mm 0 W/m2
03:24 55.4 °F /  13 °C 52.2 °F /  11.2 °C 29.77in /  1008hPa Calm     89% 0.00in /  0mm 0 W/m2
03:29 55.2 °F /  12.9 °C 52 °F /  11.1 °C 29.77in /  1008hPa Calm     89% 0.00in /  0mm 0 W/m2
03:34 55.1 °F /  12.8 °C 51.9 °F /  11.1 °C 29.77in /  1008hPa Calm     89% 0.00in /  0mm 0 W/m2
03:39 55 °F /  12.8 °C 51.8 °F /  11 °C 29.77in /  1008hPa Calm     89% 0.00in /  0mm 0 W/m2
03:44 55 °F /  12.8 °C 51.7 °F /  10.9 °C 29.77in /  1008hPa Calm     89% 0.00in /  0mm 0 W/m2
03:49 54.9 °F /  12.7 °C 51.6 °F /  10.9 °C 29.77in /  1008hPa Calm     89% 0.00in /  0mm 0 W/m2
03:54 54.9 °F /  12.7 °C 51.6 °F /  10.9 °C 29.77in /  1008hPa Calm     89% 0.00in /  0mm 0 W/m2
03:59 54.9 °F /  12.7 °C 51.6 °F /  10.9 °C 29.77in /  1008hPa Calm     89% 0.00in /  0mm 0 W/m2
04:04 54.9 °F /  12.7 °C 51.6 °F /  10.9 °C 29.77in /  1008hPa Calm     89% 0.00in /  0mm 0 W/m2
04:09 54.7 °F /  12.6 °C 51.4 °F /  10.8 °C 29.77in /  1008hPa Calm     89% 0.00in /  0mm 0 W/m2
04:14 54.5 °F /  12.5 °C 51.6 °F /  10.9 °C 29.77in /  1008hPa Calm     89.8% 0.00in /  0mm 0 W/m2
04:19 54.2 °F /  12.3 °C 51.3 °F /  10.7 °C 29.77in /  1008hPa Calm     89.9% 0.00in /  0mm 0 W/m2
04:24 54 °F /  12.2 °C 50.9 °F /  10.5 °C 29.77in /  1008hPa Calm     89.5% 0.00in /  0mm 0 W/m2
04:29 54 °F /  12.2 °C 51.1 °F /  10.6 °C 29.77in /  1008hPa Calm     90% 0.00in /  0mm 0 W/m2
04:34 54 °F /  12.2 °C 51.1 °F /  10.6 °C 29.78in /  1008.4hPa Calm     90% 0.00in /  0mm 0 W/m2
04:39 53.9 °F /  12.2 °C 51 °F /  10.6 °C 29.77in /  1008hPa Calm     90% 0.00in /  0mm 0 W/m2
04:44 54 °F /  12.2 °C 51.1 °F /  10.6 °C 29.77in /  1008hPa Calm     90% 0.00in /  0mm 0 W/m2
04:49 54 °F /  12.2 °C 51.2 °F /  10.7 °C 29.77in /  1008hPa Calm     90% 0.00in /  0mm 0 W/m2
04:54 54 °F /  12.2 °C 51.1 °F /  10.6 °C 29.77in /  1008hPa Calm     90% 0.00in /  0mm 0 W/m2
04:59 54 °F /  12.2 °C 51.1 °F /  10.6 °C 29.77in /  1008hPa Calm     90% 0.00in /  0mm 0 W/m2
05:04 54 °F /  12.2 °C 51.1 °F /  10.6 °C 29.77in /  1008hPa Calm     90% 0.00in /  0mm 0 W/m2
05:09 53.5 °F /  11.9 °C 50.6 °F /  10.3 °C 29.77in /  1008hPa Calm     90% 0.00in /  0mm 0 W/m2
05:14 53.4 °F /  11.9 °C 50.5 °F /  10.3 °C 29.77in /  1008hPa Calm     90% 0.00in /  0mm 0 W/m2
05:19 53.5 °F /  11.9 °C 50.6 °F /  10.3 °C 29.78in /  1008.4hPa Calm     90% 0.00in /  0mm 0 W/m2
05:24 53.6 °F /  12 °C 50.8 °F /  10.4 °C 29.78in /  1008.4hPa Calm     90.3% 0.00in /  0mm 0 W/m2
05:29 53.7 °F /  12.1 °C 51.2 °F /  10.7 °C 29.78in /  1008.4hPa Calm     91% 0.00in /  0mm 0 W/m2
05:34 54 °F /  12.2 °C 51.4 °F /  10.8 °C 29.77in /  1008hPa Calm     91% 0.00in /  0mm 0 W/m2
05:39 54 °F /  12.2 °C 51.4 °F /  10.8 °C 29.78in /  1008.4hPa Calm     91% 0.00in /  0mm 5 W/m2
05:44 54 °F /  12.2 °C 51.4 °F /  10.8 °C 29.77in /  1008hPa Calm     91% 0.00in /  0mm 7 W/m2
05:49 54 °F /  12.2 °C 51.4 °F /  10.8 °C 29.77in /  1008hPa Calm     91% 0.00in /  0mm 9 W/m2
05:54 54.1 °F /  12.3 °C 51.5 °F /  10.8 °C 29.78in /  1008.4hPa Calm     91% 0.00in /  0mm 11 W/m2
05:59 54.1 °F /  12.3 °C 51.6 °F /  10.9 °C 29.78in /  1008.4hPa Calm     91% 0.00in /  0mm 14 W/m2
06:04 54 °F /  12.2 °C 51.4 °F /  10.8 °C 29.78in /  1008.4hPa Calm     91% 0.00in /  0mm 16 W/m2
06:09 54 °F /  12.2 °C 51.4 °F /  10.8 °C 29.78in /  1008.4hPa Calm     91% 0.00in /  0mm 16 W/m2
06:14 54 °F /  12.2 °C 51.4 °F /  10.8 °C 29.78in /  1008.4hPa Calm     91% 0.00in /  0mm 18 W/m2
06:19 54 °F /  12.2 °C 51.4 °F /  10.8 °C 29.78in /  1008.4hPa Calm     91% 0.00in /  0mm 19 W/m2
06:24 54 °F /  12.2 °C 51.4 °F /  10.8 °C 29.78in /  1008.4hPa Calm     91% 0.00in /  0mm 21 W/m2
06:29 54 °F /  12.2 °C 51.4 °F /  10.8 °C 29.78in /  1008.4hPa Calm     91% 0.00in /  0mm 23 W/m2
06:34 54 °F /  12.2 °C 51.4 °F /  10.8 °C 29.78in /  1008.4hPa Calm     91% 0.00in /  0mm 25 W/m2
06:39 54 °F /  12.2 °C 51.4 °F /  10.8 °C 29.78in /  1008.4hPa Calm     91% 0.00in /  0mm 28 W/m2
06:44 54.1 °F /  12.3 °C 51.6 °F /  10.9 °C 29.78in /  1008.4hPa Calm     91% 0.00in /  0mm 30 W/m2
06:49 54.3 °F /  12.4 °C 51.8 °F /  11 °C 29.78in /  1008.4hPa Calm     91% 0.00in /  0mm 32 W/m2
06:54 54.3 °F /  12.4 °C 51.8 °F /  11 °C 29.78in /  1008.4hPa Calm     91% 0.00in /  0mm 39 W/m2
06:59 54.3 °F /  12.4 °C 51.8 °F /  11 °C 29.78in /  1008.4hPa Calm     91% 0.00in /  0mm 46 W/m2
07:04 54.3 °F /  12.4 °C 51.8 °F /  11 °C 29.79in /  1008.7hPa Calm     91% 0.00in /  0mm 56 W/m2
07:09 54.5 °F /  12.5 °C 52 °F /  11.1 °C 29.79in /  1008.7hPa Calm     91% 0.00in /  0mm 69 W/m2
07:14 54.9 °F /  12.7 °C 52.4 °F /  11.3 °C 29.79in /  1008.7hPa Calm     91% 0.00in /  0mm 77 W/m2
07:19 55.3 °F /  12.9 °C 52.8 °F /  11.6 °C 29.79in /  1008.7hPa Calm     91% 0.00in /  0mm 95 W/m2
07:24 55.6 °F /  13.1 °C 53.1 °F /  11.7 °C 29.79in /  1008.7hPa WNW 0.1mph /  0.2km/h 1mph /  1.6km/h 91% 0.00in /  0mm 107 W/m2
07:29 55.8 °F /  13.2 °C 53.2 °F /  11.8 °C 29.79in /  1008.7hPa WNW 0.1mph /  0.2km/h 1mph /  1.6km/h 91% 0.00in /  0mm 123 W/m2
07:34 56 °F /  13.3 °C 53.4 °F /  11.9 °C 29.79in /  1008.7hPa WNW 0.1mph /  0.2km/h 1mph /  1.6km/h 90.8% 0.00in /  0mm 139 W/m2
07:39 56.2 °F /  13.4 °C 53.3 °F /  11.8 °C 29.79in /  1008.7hPa WNW 0.1mph /  0.2km/h 1mph /  1.6km/h 90.2% 0.00in /  0mm 156 W/m2
07:44 56.4 °F /  13.6 °C 53.5 °F /  11.9 °C 29.79in /  1008.7hPa WNW 0.2mph /  0.3km/h 1mph /  1.6km/h 90% 0.00in /  0mm 174 W/m2
07:49 56.8 °F /  13.8 °C 53.8 °F /  12.1 °C 29.79in /  1008.7hPa WNW 1.3mph /  2.1km/h 3mph /  4.8km/h 89.7% 0.00in /  0mm 186 W/m2
07:54 57.1 °F /  13.9 °C 53.9 °F /  12.2 °C 29.79in /  1008.7hPa WNW 0.4mph /  0.6km/h 3mph /  4.8km/h 89% 0.00in /  0mm 202 W/m2
07:59 57.6 °F /  14.2 °C 54.2 °F /  12.3 °C 29.79in /  1008.7hPa WNW 0.8mph /  1.3km/h 3mph /  4.8km/h 88.5% 0.00in /  0mm 218 W/m2
08:04 58 °F /  14.4 °C 54.4 °F /  12.4 °C 29.79in /  1008.7hPa WNW 0.9mph /  1.4km/h 2mph /  3.2km/h 88% 0.00in /  0mm 234 W/m2
08:09 58.5 °F /  14.7 °C 54.8 °F /  12.7 °C 29.79in /  1008.7hPa WNW 1.1mph /  1.8km/h 3mph /  4.8km/h 87.2% 0.00in /  0mm 250 W/m2
08:14 58.8 °F /  14.9 °C 54.8 °F /  12.7 °C 29.79in /  1008.7hPa WNW 1.2mph /  1.9km/h 4mph /  6.4km/h 86.2% 0.00in /  0mm 265 W/m2
08:19 59.3 °F /  15.2 °C 55 °F /  12.8 °C 29.79in /  1008.7hPa WNW 0.5mph /  0.8km/h 3mph /  4.8km/h 85.4% 0.00in /  0mm 281 W/m2
08:24 59.8 °F /  15.4 °C 55 °F /  12.8 °C 29.79in /  1008.7hPa WNW 1.5mph /  2.4km/h 5mph /  8km/h 84.1% 0.00in /  0mm 294 W/m2
08:29 60.9 °F /  16.1 °C 55.2 °F /  12.9 °C 29.79in /  1008.7hPa WNW 0.5mph /  0.8km/h 5mph /  8km/h 81.8% 0.00in /  0mm 309 W/m2
08:34 62.2 °F /  16.8 °C 55.4 °F /  13 °C 29.79in /  1008.7hPa WNW 0.2mph /  0.3km/h 2mph /  3.2km/h 78.4% 0.00in /  0mm 323 W/m2
08:39 62.5 °F /  16.9 °C 54.9 °F /  12.7 °C 29.79in /  1008.7hPa SSW 1.6mph /  2.6km/h 6mph /  9.7km/h 76.4% 0.00in /  0mm 343 W/m2
08:44 62.7 °F /  17.1 °C 54.8 °F /  12.7 °C 29.79in /  1008.7hPa South 1mph /  1.6km/h 6mph /  9.7km/h 75.7% 0.00in /  0mm 359 W/m2
08:49 63.4 °F /  17.4 °C 54.7 °F /  12.6 °C 29.79in /  1008.7hPa South 0.7mph /  1.1km/h 4mph /  6.4km/h 73.4% 0.00in /  0mm 376 W/m2
08:54 63.3 °F /  17.4 °C 54.4 °F /  12.4 °C 29.80in /  1009hPa South 1.1mph /  1.8km/h 4mph /  6.4km/h 72.9% 0.00in /  0mm 390 W/m2
08:59 64.1 °F /  17.8 °C 53.9 °F /  12.2 °C 29.79in /  1008.7hPa SSE 3mph /  4.8km/h 6mph /  9.7km/h 69.5% 0.00in /  0mm 404 W/m2
09:04 63.6 °F /  17.6 °C 52.8 °F /  11.6 °C 29.80in /  1009hPa South 3.7mph /  6km/h 7mph /  11.3km/h 68.1% 0.00in /  0mm 420 W/m2
09:09 62.8 °F /  17.1 °C 52.7 °F /  11.5 °C 29.80in /  1009hPa South 3.1mph /  5km/h 7mph /  11.3km/h 69.4% 0.00in /  0mm 434 W/m2
09:14 63.1 °F /  17.3 °C 53.1 °F /  11.7 °C 29.79in /  1008.7hPa South 2.6mph /  4.2km/h 6mph /  9.7km/h 69.7% 0.00in /  0mm 446 W/m2
09:19 63.8 °F /  17.7 °C 53.2 °F /  11.8 °C 29.79in /  1008.7hPa South 1.9mph /  3.1km/h 5mph /  8km/h 68.5% 0.00in /  0mm 459 W/m2
09:24 64.1 °F /  17.8 °C 53.3 °F /  11.8 °C 29.79in /  1008.7hPa South 3.5mph /  5.6km/h 7mph /  11.3km/h 67.7% 0.00in /  0mm 471 W/m2
09:29 63.9 °F /  17.7 °C 53 °F /  11.7 °C 29.79in /  1008.7hPa South 1.7mph /  2.7km/h 7mph /  11.3km/h 67.6% 0.00in /  0mm 483 W/m2
09:34 64.2 °F /  17.9 °C 53.3 °F /  11.8 °C 29.79in /  1008.7hPa South 2.9mph /  4.7km/h 7mph /  11.3km/h 67.5% 0.00in /  0mm 494 W/m2
09:39 65.2 °F /  18.4 °C 53.8 °F /  12.1 °C 29.79in /  1008.7hPa South 3.9mph /  6.3km/h 9mph /  14.5km/h 66.8% 0.00in /  0mm 506 W/m2
09:44 64.9 °F /  18.3 °C 53.5 °F /  11.9 °C 29.79in /  1008.7hPa South 1.7mph /  2.7km/h 5mph /  8km/h 66.4% 0.00in /  0mm 519 W/m2
09:49 65.1 °F /  18.4 °C 53.6 °F /  12 °C 29.79in /  1008.7hPa SSW 3.5mph /  5.6km/h 6mph /  9.7km/h 66.3% 0.00in /  0mm 527 W/m2
09:54 65.7 °F /  18.7 °C 53.9 °F /  12.2 °C 29.79in /  1008.7hPa SSW 1.8mph /  2.9km/h 6mph /  9.7km/h 65.7% 0.00in /  0mm 541 W/m2
09:59 65.6 °F /  18.7 °C 53.5 °F /  11.9 °C 29.79in /  1008.7hPa SSW 4.1mph /  6.6km/h 9mph /  14.5km/h 65% 0.00in /  0mm 552 W/m2
10:04 65.8 °F /  18.8 °C 53 °F /  11.7 °C 29.79in /  1008.7hPa South 4.6mph /  7.4km/h 9mph /  14.5km/h 63.4% 0.00in /  0mm 566 W/m2
10:09 66 °F /  18.9 °C 53.3 °F /  11.8 °C 29.78in /  1008.4hPa South 5.7mph /  9.2km/h 10mph /  16.1km/h 63.4% 0.00in /  0mm 575 W/m2
10:14 66.4 °F /  19.1 °C 54.5 °F /  12.5 °C 29.78in /  1008.4hPa SSW 3mph /  4.8km/h 7mph /  11.3km/h 65.4% 0.00in /  0mm 587 W/m2
10:19 66.7 °F /  19.3 °C 54.3 °F /  12.4 °C 29.78in /  1008.4hPa SW 3.8mph /  6.1km/h 7mph /  11.3km/h 64.5% 0.00in /  0mm 599 W/m2
10:24 66.9 °F /  19.4 °C 54.7 °F /  12.6 °C 29.78in /  1008.4hPa SSW 4.6mph /  7.4km/h 7mph /  11.3km/h 64.9% 0.00in /  0mm 621 W/m2
10:29 67.1 °F /  19.5 °C 54.4 °F /  12.4 °C 29.78in /  1008.4hPa SSW 4.3mph /  6.9km/h 7mph /  11.3km/h 63.9% 0.00in /  0mm 638 W/m2
10:34 66.9 °F /  19.4 °C 54 °F /  12.2 °C 29.78in /  1008.4hPa SSW 4.8mph /  7.7km/h 11mph /  17.7km/h 63.3% 0.00in /  0mm 659 W/m2
10:39 67.3 °F /  19.6 °C 54.3 °F /  12.4 °C 29.78in /  1008.4hPa SSW 4.2mph /  6.8km/h 9mph /  14.5km/h 62.8% 0.00in /  0mm 694 W/m2
10:44 67.8 °F /  19.9 °C 54.8 °F /  12.7 °C 29.78in /  1008.4hPa SW 4mph /  6.4km/h 9mph /  14.5km/h 63% 0.00in /  0mm 715 W/m2
10:49 68.2 °F /  20.1 °C 55 °F /  12.8 °C 29.78in /  1008.4hPa SW 2.6mph /  4.2km/h 9mph /  14.5km/h 62.6% 0.00in /  0mm 752 W/m2
10:54 68.6 °F /  20.3 °C 55.3 °F /  12.9 °C 29.78in /  1008.4hPa West 2.6mph /  4.2km/h 6mph /  9.7km/h 62.5% 0.00in /  0mm 796 W/m2
10:59 69.3 °F /  20.7 °C 55.7 °F /  13.2 °C 29.78in /  1008.4hPa SW 4.8mph /  7.7km/h 9mph /  14.5km/h 61.9% 0.00in /  0mm 796 W/m2
11:04 69.3 °F /  20.7 °C 55.8 °F /  13.2 °C 29.78in /  1008.4hPa SW 3.7mph /  6km/h 7mph /  11.3km/h 62.2% 0.00in /  0mm 793 W/m2
11:09 69.3 °F /  20.7 °C 55.1 °F /  12.8 °C 29.77in /  1008hPa South 5.8mph /  9.3km/h 11mph /  17.7km/h 60.6% 0.00in /  0mm 802 W/m2
11:14 69.3 °F /  20.7 °C 55 °F /  12.8 °C 29.78in /  1008.4hPa South 5.6mph /  9km/h 11mph /  17.7km/h 60.3% 0.00in /  0mm 786 W/m2
11:19 68.8 °F /  20.4 °C 54.8 °F /  12.7 °C 29.78in /  1008.4hPa South 5.3mph /  8.5km/h 10mph /  16.1km/h 61.2% 0.00in /  0mm 824 W/m2
11:24 68.8 °F /  20.4 °C 55.1 °F /  12.8 °C 29.78in /  1008.4hPa SSW 3.3mph /  5.3km/h 9mph /  14.5km/h 61.5% 0.00in /  0mm 185 W/m2
11:29 68.5 °F /  20.3 °C 55 °F /  12.8 °C 29.77in /  1008hPa SSW 3mph /  4.8km/h 7mph /  11.3km/h 62% 0.00in /  0mm 211 W/m2
11:34 68.4 °F /  20.2 °C 55 °F /  12.8 °C 29.77in /  1008hPa South 5.9mph /  9.5km/h 10mph /  16.1km/h 62.2% 0.00in /  0mm 831 W/m2
11:39 68.7 °F /  20.4 °C 54.9 °F /  12.7 °C 29.77in /  1008hPa SW 4.3mph /  6.9km/h 10mph /  16.1km/h 61.5% 0.00in /  0mm 253 W/m2
11:44 69.1 °F /  20.6 °C 54.6 °F /  12.6 °C 29.77in /  1008hPa SSW 4.2mph /  6.8km/h 9mph /  14.5km/h 59.9% 0.00in /  0mm 856 W/m2
11:49 69.2 °F /  20.7 °C 54.8 °F /  12.7 °C 29.77in /  1008hPa South 5.2mph /  8.4km/h 10mph /  16.1km/h 60% 0.00in /  0mm 271 W/m2
11:54 69.2 °F /  20.7 °C 55.4 °F /  13 °C 29.77in /  1008hPa SSW 3.6mph /  5.8km/h 9mph /  14.5km/h 61.6% 0.00in /  0mm 895 W/m2
11:59 69.8 °F /  21 °C 55.1 °F /  12.8 °C 29.77in /  1008hPa South 5.5mph /  8.9km/h 13mph /  20.9km/h 59.6% 0.00in /  0mm 858 W/m2
12:04 70.3 °F /  21.3 °C 54.9 °F /  12.7 °C 29.77in /  1008hPa South 4.8mph /  7.7km/h 13mph /  20.9km/h 58.3% 0.00in /  0mm 860 W/m2
12:09 70.8 °F /  21.6 °C 54.5 °F /  12.5 °C 29.76in /  1007.7hPa SSE 5.9mph /  9.5km/h 12mph /  19.3km/h 56.5% 0.00in /  0mm 877 W/m2
12:14 70.7 °F /  21.5 °C 54.4 °F /  12.4 °C 29.76in /  1007.7hPa SSE 4.5mph /  7.2km/h 11mph /  17.7km/h 56.4% 0.00in /  0mm 889 W/m2
12:19 70.7 °F /  21.5 °C 54.5 °F /  12.5 °C 29.76in /  1007.7hPa South 5.1mph /  8.2km/h 11mph /  17.7km/h 56.4% 0.00in /  0mm 898 W/m2
12:24 71 °F /  21.7 °C 54.4 °F /  12.4 °C 29.76in /  1007.7hPa SSW 5.6mph /  9km/h 9mph /  14.5km/h 55.9% 0.00in /  0mm 279 W/m2
12:29 70 °F /  21.1 °C 54.2 °F /  12.3 °C 29.76in /  1007.7hPa South 3.2mph /  5.1km/h 8mph /  12.9km/h 57.2% 0.00in /  0mm 292 W/m2
12:34 71.6 °F /  22 °C 55.2 °F /  12.9 °C 29.76in /  1007.7hPa SSW 3.2mph /  5.1km/h 8mph /  12.9km/h 56.2% 0.00in /  0mm 956 W/m2
12:39 71.7 °F /  22.1 °C 54.5 °F /  12.5 °C 29.76in /  1007.7hPa South 5.5mph /  8.9km/h 11mph /  17.7km/h 54.8% 0.00in /  0mm 967 W/m2
12:44 71.8 °F /  22.1 °C 54.6 °F /  12.6 °C 29.76in /  1007.7hPa South 4.9mph /  7.9km/h 11mph /  17.7km/h 54.8% 0.00in /  0mm 967 W/m2
12:49 71.7 °F /  22.1 °C 54.6 °F /  12.6 °C 29.76in /  1007.7hPa South 4.1mph /  6.6km/h 13mph /  20.9km/h 55% 0.00in /  0mm 383 W/m2
12:54 71.5 °F /  21.9 °C 54.4 °F /  12.4 °C 29.76in /  1007.7hPa SSE 4.4mph /  7.1km/h 12mph /  19.3km/h 54.9% 0.00in /  0mm 410 W/m2
12:59 70.9 °F /  21.6 °C 54.3 °F /  12.4 °C 29.75in /  1007.3hPa SSE 7.4mph /  11.9km/h 14mph /  22.5km/h 55.6% 0.00in /  0mm 1016 W/m2
13:04 70.9 °F /  21.6 °C 54.3 °F /  12.4 °C 29.75in /  1007.3hPa South 4.4mph /  7.1km/h 13mph /  20.9km/h 55.8% 0.00in /  0mm 981 W/m2
13:09 71.2 °F /  21.8 °C 54.7 °F /  12.6 °C 29.75in /  1007.3hPa South 6.7mph /  10.8km/h 14mph /  22.5km/h 56% 0.00in /  0mm 656 W/m2
13:14 70.7 °F /  21.5 °C 54.7 °F /  12.6 °C 29.75in /  1007.3hPa South 5.2mph /  8.4km/h 12mph /  19.3km/h 56.9% 0.00in /  0mm 327 W/m2
13:19 71.3 °F /  21.8 °C 55.5 °F /  13.1 °C 29.75in /  1007.3hPa SSE 6.8mph /  10.9km/h 12mph /  19.3km/h 57.5% 0.00in /  0mm 1011 W/m2
13:24 72.2 °F /  22.3 °C 55.8 °F /  13.2 °C 29.75in /  1007.3hPa SSE 6.6mph /  10.6km/h 14mph /  22.5km/h 56.2% 0.00in /  0mm 984 W/m2
13:29 72.5 °F /  22.5 °C 55.9 °F /  13.3 °C 29.75in /  1007.3hPa South 8.6mph /  13.8km/h 15mph /  24.1km/h 56% 0.00in /  0mm 940 W/m2
13:34 71.8 °F /  22.1 °C 55.4 °F /  13 °C 29.75in /  1007.3hPa South 8.2mph /  13.2km/h 16mph /  25.7km/h 56.2% 0.00in /  0mm 944 W/m2
13:39 72.8 °F /  22.7 °C 56.3 °F /  13.5 °C 29.75in /  1007.3hPa SSW 4.5mph /  7.2km/h 12mph /  19.3km/h 56.2% 0.00in /  0mm 995 W/m2
13:44 73.7 °F /  23.2 °C 56.4 °F /  13.6 °C 29.75in /  1007.3hPa South 8.5mph /  13.7km/h 14mph /  22.5km/h 54.6% 0.00in /  0mm 965 W/m2
13:49 73.4 °F /  23 °C 56.3 °F /  13.5 °C 29.75in /  1007.3hPa SSE 4.7mph /  7.6km/h 14mph /  22.5km/h 55% 0.00in /  0mm 942 W/m2
13:54 73.6 °F /  23.1 °C 56 °F /  13.3 °C 29.75in /  1007.3hPa SSE 6.5mph /  10.5km/h 14mph /  22.5km/h 54% 0.00in /  0mm 918 W/m2
13:59 72.6 °F /  22.6 °C 54.8 °F /  12.7 °C 29.75in /  1007.3hPa South 8.1mph /  13km/h 14mph /  22.5km/h 53.7% 0.00in /  0mm 877 W/m2
14:04 73.6 °F /  23.1 °C 55.5 °F /  13.1 °C 29.74in /  1007hPa SSW 5.5mph /  8.9km/h 12mph /  19.3km/h 53% 0.00in /  0mm 844 W/m2
14:09 74.2 °F /  23.4 °C 55.6 °F /  13.1 °C 29.75in /  1007.3hPa South 8.1mph /  13km/h 16mph /  25.7km/h 52.3% 0.00in /  0mm 830 W/m2
14:14 72.8 °F /  22.7 °C 55 °F /  12.8 °C 29.74in /  1007hPa South 5.7mph /  9.2km/h 16mph /  25.7km/h 53.7% 0.00in /  0mm 812 W/m2
14:19 73.7 °F /  23.2 °C 55.8 °F /  13.2 °C 29.74in /  1007hPa South 7.4mph /  11.9km/h 14mph /  22.5km/h 53.3% 0.00in /  0mm 858 W/m2
14:24 73.8 °F /  23.2 °C 55.9 °F /  13.3 °C 29.74in /  1007hPa SSE 4.4mph /  7.1km/h 12mph /  19.3km/h 53.5% 0.00in /  0mm 809 W/m2
14:29 74.8 °F /  23.8 °C 55.6 °F /  13.1 °C 29.74in /  1007hPa SSE 7.3mph /  11.7km/h 15mph /  24.1km/h 51.3% 0.00in /  0mm 828 W/m2
14:34 73.9 °F /  23.3 °C 55.6 °F /  13.1 °C 29.74in /  1007hPa South 5mph /  8km/h 15mph /  24.1km/h 52.7% 0.00in /  0mm 821 W/m2
14:39 73.8 °F /  23.2 °C 55.4 °F /  13 °C 29.74in /  1007hPa SSE 6.9mph /  11.1km/h 11mph /  17.7km/h 52.6% 0.00in /  0mm 793 W/m2
14:44 73.1 °F /  22.8 °C 54.4 °F /  12.4 °C 29.74in /  1007hPa SSE 9.4mph /  15.1km/h 15mph /  24.1km/h 51.9% 0.00in /  0mm 786 W/m2
14:49 73.3 °F /  22.9 °C 54.3 °F /  12.4 °C 29.74in /  1007hPa South 10.6mph /  17.1km/h 18mph /  29km/h 51.3% 0.00in /  0mm 805 W/m2
14:54 73.1 °F /  22.8 °C 54.3 °F /  12.4 °C 29.74in /  1007hPa SSE 6.9mph /  11.1km/h 13mph /  20.9km/h 51.9% 0.00in /  0mm 800 W/m2
14:59 74.2 °F /  23.4 °C 54.9 °F /  12.7 °C 29.74in /  1007hPa SE 9.1mph /  14.6km/h 16mph /  25.7km/h 51% 0.00in /  0mm 879 W/m2
15:04 74.3 °F /  23.5 °C 54.6 °F /  12.6 °C 29.74in /  1007hPa SSE 7.4mph /  11.9km/h 14mph /  22.5km/h 50.2% 0.00in /  0mm 835 W/m2
15:09 74.1 °F /  23.4 °C 54.9 °F /  12.7 °C 29.74in /  1007hPa South 4.5mph /  7.2km/h 10mph /  16.1km/h 51% 0.00in /  0mm 626 W/m2
15:14 74.1 °F /  23.4 °C 54.9 °F /  12.7 °C 29.74in /  1007hPa SSE 8.1mph /  13km/h 17mph /  27.4km/h 51% 0.00in /  0mm 888 W/m2
15:19 74.3 °F /  23.5 °C 54.9 °F /  12.7 °C 29.74in /  1007hPa SSE 6.4mph /  10.3km/h 14mph /  22.5km/h 50.8% 0.00in /  0mm 888 W/m2
15:24 74 °F /  23.3 °C 54.4 °F /  12.4 °C 29.74in /  1007hPa SSE 7.7mph /  12.4km/h 18mph /  29km/h 50.3% 0.00in /  0mm 805 W/m2
15:29 74.1 °F /  23.4 °C 54.2 °F /  12.3 °C 29.74in /  1007hPa SSE 7.7mph /  12.4km/h 15mph /  24.1km/h 49.9% 0.00in /  0mm 775 W/m2
15:34 73.2 °F /  22.9 °C 53.7 °F /  12.1 °C 29.74in /  1007hPa South 10mph /  16.1km/h 18mph /  29km/h 50.7% 0.00in /  0mm 311 W/m2
15:39 73 °F /  22.8 °C 53.6 °F /  12 °C 29.73in /  1006.7hPa South 7.8mph /  12.6km/h 15mph /  24.1km/h 50.8% 0.00in /  0mm 872 W/m2
15:44 73.6 °F /  23.1 °C 53.7 °F /  12.1 °C 29.73in /  1006.7hPa SSE 10.5mph /  16.9km/h 17mph /  27.4km/h 49.9% 0.00in /  0mm 780 W/m2
15:49 72.9 °F /  22.7 °C 53.3 °F /  11.8 °C 29.73in /  1006.7hPa SSE 7.7mph /  12.4km/h 17mph /  27.4km/h 50.4% 0.00in /  0mm 749 W/m2
15:54 73.6 °F /  23.1 °C 54 °F /  12.2 °C 29.73in /  1006.7hPa SSE 7mph /  11.3km/h 14mph /  22.5km/h 50.4% 0.00in /  0mm 761 W/m2
15:59 73.3 °F /  22.9 °C 53.5 °F /  11.9 °C 29.73in /  1006.7hPa South 9.1mph /  14.6km/h 15mph /  24.1km/h 50% 0.00in /  0mm 773 W/m2
16:04 73.4 °F /  23 °C 53.7 °F /  12.1 °C 29.73in /  1006.7hPa SSE 5.4mph /  8.7km/h 14mph /  22.5km/h 50% 0.00in /  0mm 770 W/m2
16:09 73.9 °F /  23.3 °C 52.6 °F /  11.4 °C 29.72in /  1006.3hPa SSE 8.9mph /  14.3km/h 19mph /  30.6km/h 47.2% 0.00in /  0mm 737 W/m2
16:14 73.8 °F /  23.2 °C 52.6 °F /  11.4 °C 29.72in /  1006.3hPa SE 7.9mph /  12.7km/h 15mph /  24.1km/h 47.5% 0.00in /  0mm 810 W/m2
16:19 73.3 °F /  22.9 °C 52.1 °F /  11.2 °C 29.72in /  1006.3hPa SSE 8.8mph /  14.2km/h 15mph /  24.1km/h 47.3% 0.00in /  0mm 805 W/m2
16:24 73.2 °F /  22.9 °C 52.1 °F /  11.2 °C 29.72in /  1006.3hPa SSE 8.3mph /  13.4km/h 16mph /  25.7km/h 47.6% 0.00in /  0mm 745 W/m2
16:29 73.6 °F /  23.1 °C 52.7 °F /  11.5 °C 29.72in /  1006.3hPa SSE 7.6mph /  12.2km/h 15mph /  24.1km/h 48.1% 0.00in /  0mm 675 W/m2
16:34 73.6 °F /  23.1 °C 53.1 °F /  11.7 °C 29.72in /  1006.3hPa SSE 7.4mph /  11.9km/h 15mph /  24.1km/h 48.9% 0.00in /  0mm 647 W/m2
16:39 73.4 °F /  23 °C 52.7 °F /  11.5 °C 29.72in /  1006.3hPa SSE 10.2mph /  16.4km/h 17mph /  27.4km/h 48.1% 0.00in /  0mm 742 W/m2
16:44 73.4 °F /  23 °C 51.7 °F /  10.9 °C 29.72in /  1006.3hPa SSE 8.2mph /  13.2km/h 17mph /  27.4km/h 46.5% 0.00in /  0mm 745 W/m2
16:49 73 °F /  22.8 °C 51.5 °F /  10.8 °C 29.72in /  1006.3hPa SSE 10.1mph /  16.3km/h 16mph /  25.7km/h 46.9% 0.00in /  0mm 735 W/m2
16:54 72.8 °F /  22.7 °C 52.2 °F /  11.2 °C 29.72in /  1006.3hPa SSE 7mph /  11.3km/h 14mph /  22.5km/h 48.6% 0.00in /  0mm 635 W/m2
16:59 72.4 °F /  22.4 °C 52.8 °F /  11.6 °C 29.72in /  1006.3hPa SSE 6.4mph /  10.3km/h 13mph /  20.9km/h 50.1% 0.00in /  0mm 666 W/m2
17:04 72.9 °F /  22.7 °C 52.6 °F /  11.4 °C 29.72in /  1006.3hPa SSE 8.9mph /  14.3km/h 17mph /  27.4km/h 49.1% 0.00in /  0mm 654 W/m2
17:09 73.1 °F /  22.8 °C 52.7 °F /  11.5 °C 29.72in /  1006.3hPa South 5.3mph /  8.5km/h 14mph /  22.5km/h 48.8% 0.00in /  0mm 628 W/m2
17:14 73.4 °F /  23 °C 52.7 °F /  11.5 °C 29.72in /  1006.3hPa SSE 9.1mph /  14.6km/h 15mph /  24.1km/h 48.3% 0.00in /  0mm 563 W/m2
17:19 73.4 °F /  23 °C 52.2 °F /  11.2 °C 29.72in /  1006.3hPa SSE 6.8mph /  10.9km/h 15mph /  24.1km/h 47.5% 0.00in /  0mm 547 W/m2
17:24 73.4 °F /  23 °C 52.8 °F /  11.6 °C 29.72in /  1006.3hPa SSE 8mph /  12.9km/h 14mph /  22.5km/h 48.4% 0.00in /  0mm 578 W/m2
17:29 73.6 °F /  23.1 °C 52.8 °F /  11.6 °C 29.72in /  1006.3hPa SSE 6.6mph /  10.6km/h 13mph /  20.9km/h 48.2% 0.00in /  0mm 589 W/m2
17:34 73 °F /  22.8 °C 52.2 °F /  11.2 °C 29.72in /  1006.3hPa SSE 7.5mph /  12.1km/h 13mph /  20.9km/h 48.2% 0.00in /  0mm 587 W/m2
17:39 72.8 °F /  22.7 °C 51.7 °F /  10.9 °C 29.72in /  1006.3hPa SSE 8.8mph /  14.2km/h 14mph /  22.5km/h 47.6% 0.00in /  0mm 587 W/m2
17:44 72.4 °F /  22.4 °C 51 °F /  10.6 °C 29.71in /  1006hPa SSE 10.8mph /  17.4km/h 15mph /  24.1km/h 47% 0.00in /  0mm 155 W/m2
17:49 71.7 °F /  22.1 °C 51.4 °F /  10.8 °C 29.72in /  1006.3hPa South 7.5mph /  12.1km/h 14mph /  22.5km/h 48.8% 0.00in /  0mm 142 W/m2
17:54 71.5 °F /  21.9 °C 51.9 °F /  11.1 °C 29.72in /  1006.3hPa SSE 8mph /  12.9km/h 14mph /  22.5km/h 50% 0.00in /  0mm 120 W/m2
17:59 71.3 °F /  21.8 °C 52.2 °F /  11.2 °C 29.72in /  1006.3hPa SSE 5.9mph /  9.5km/h 12mph /  19.3km/h 51% 0.00in /  0mm 113 W/m2
18:04 71.4 °F /  21.9 °C 52.1 °F /  11.2 °C 29.72in /  1006.3hPa SSE 8.5mph /  13.7km/h 14mph /  22.5km/h 50.6% 0.00in /  0mm 156 W/m2
18:09 71.3 °F /  21.8 °C 51.8 °F /  11 °C 29.71in /  1006hPa South 5.8mph /  9.3km/h 14mph /  22.5km/h 50.2% 0.00in /  0mm 186 W/m2
18:14 71.4 °F /  21.9 °C 51.9 °F /  11.1 °C 29.71in /  1006hPa South 5.4mph /  8.7km/h 12mph /  19.3km/h 50.3% 0.00in /  0mm 185 W/m2
18:19 71.2 °F /  21.8 °C 52.1 °F /  11.2 °C 29.71in /  1006hPa South 6.5mph /  10.5km/h 11mph /  17.7km/h 50.9% 0.00in /  0mm 176 W/m2
18:24 71.4 °F /  21.9 °C 51.8 °F /  11 °C 29.71in /  1006hPa South 5.4mph /  8.7km/h 11mph /  17.7km/h 50% 0.00in /  0mm 223 W/m2
18:29 71.4 °F /  21.9 °C 51.7 °F /  10.9 °C 29.70in /  1005.6hPa South 6.4mph /  10.3km/h 12mph /  19.3km/h 49.9% 0.00in /  0mm 229 W/m2
18:34 71.9 °F /  22.2 °C 52.3 °F /  11.3 °C 29.70in /  1005.6hPa SSE 4.3mph /  6.9km/h 8mph /  12.9km/h 50% 0.00in /  0mm 339 W/m2
18:39 72.2 °F /  22.3 °C 52.1 °F /  11.2 °C 29.70in /  1005.6hPa SE 4.8mph /  7.7km/h 12mph /  19.3km/h 49% 0.00in /  0mm 330 W/m2
18:44 72.5 °F /  22.5 °C 52.3 °F /  11.3 °C 29.70in /  1005.6hPa ESE 3mph /  4.8km/h 7mph /  11.3km/h 49% 0.00in /  0mm 352 W/m2
18:49 72.8 °F /  22.7 °C 52.3 °F /  11.3 °C 29.70in /  1005.6hPa SE 4.1mph /  6.6km/h 8mph /  12.9km/h 48.8% 0.00in /  0mm 348 W/m2
18:54 72.7 °F /  22.6 °C 52.3 °F /  11.3 °C 29.70in /  1005.6hPa SSE 6.1mph /  9.8km/h 11mph /  17.7km/h 48.8% 0.00in /  0mm 323 W/m2
18:59 72.3 °F /  22.4 °C 52.4 °F /  11.3 °C 29.70in /  1005.6hPa SSE 7.1mph /  11.4km/h 13mph /  20.9km/h 49.5% 0.00in /  0mm 323 W/m2
19:04 72.3 °F /  22.4 °C 52.8 °F /  11.6 °C 29.70in /  1005.6hPa SSE 5.6mph /  9km/h 13mph /  20.9km/h 50.1% 0.00in /  0mm 269 W/m2
19:09 72.1 °F /  22.3 °C 53.3 °F /  11.8 °C 29.70in /  1005.6hPa SSE 5.8mph /  9.3km/h 12mph /  19.3km/h 51.3% 0.00in /  0mm 200 W/m2
19:14 72.1 °F /  22.3 °C 53.5 °F /  11.9 °C 29.70in /  1005.6hPa SE 5.2mph /  8.4km/h 12mph /  19.3km/h 52% 0.00in /  0mm 130 W/m2
19:19 71.9 °F /  22.2 °C 53.3 °F /  11.8 °C 29.70in /  1005.6hPa SSE 4.7mph /  7.6km/h 9mph /  14.5km/h 52% 0.00in /  0mm 139 W/m2
19:24 71.7 °F /  22.1 °C 53.6 °F /  12 °C 29.70in /  1005.6hPa SSE 5mph /  8km/h 13mph /  20.9km/h 52.8% 0.00in /  0mm 151 W/m2
19:29 72 °F /  22.2 °C 54 °F /  12.2 °C 29.70in /  1005.6hPa SE 6.3mph /  10.1km/h 13mph /  20.9km/h 53.2% 0.00in /  0mm 207 W/m2
19:34 71.6 °F /  22 °C 53.9 °F /  12.2 °C 29.70in /  1005.6hPa SSE 7.2mph /  11.6km/h 14mph /  22.5km/h 53.5% 0.00in /  0mm 195 W/m2
19:39 71.4 °F /  21.9 °C 54 °F /  12.2 °C 29.70in /  1005.6hPa SE 6.4mph /  10.3km/h 15mph /  24.1km/h 54% 0.00in /  0mm 151 W/m2
19:44 71.4 °F /  21.9 °C 54 °F /  12.2 °C 29.70in /  1005.6hPa SSE 5.5mph /  8.9km/h 15mph /  24.1km/h 54% 0.00in /  0mm 160 W/m2
19:49 71.4 °F /  21.9 °C 54 °F /  12.2 °C 29.70in /  1005.6hPa SSE 4.8mph /  7.7km/h 10mph /  16.1km/h 54% 0.00in /  0mm 102 W/m2
19:54 71.2 °F /  21.8 °C 54.1 °F /  12.3 °C 29.70in /  1005.6hPa SE 4.4mph /  7.1km/h 10mph /  16.1km/h 54.6% 0.00in /  0mm 95 W/m2
19:59 71.1 °F /  21.7 °C 54.2 °F /  12.3 °C 29.70in /  1005.6hPa SE 4.9mph /  7.9km/h 11mph /  17.7km/h 55.2% 0.00in /  0mm 58 W/m2
20:04 70.8 °F /  21.6 °C 54.3 °F /  12.4 °C 29.70in /  1005.6hPa SE 4.6mph /  7.4km/h 10mph /  16.1km/h 56% 0.00in /  0mm 58 W/m2
20:09 70.5 °F /  21.4 °C 54.4 °F /  12.4 °C 29.70in /  1005.6hPa SE 4.4mph /  7.1km/h 10mph /  16.1km/h 56.7% 0.00in /  0mm 53 W/m2
20:14 70.4 °F /  21.3 °C 54.7 °F /  12.6 °C 29.70in /  1005.6hPa SE 5.4mph /  8.7km/h 12mph /  19.3km/h 57.5% 0.00in /  0mm 54 W/m2
20:19 70.3 °F /  21.3 °C 54.8 °F /  12.7 °C 29.70in /  1005.6hPa ESE 4.8mph /  7.7km/h 12mph /  19.3km/h 58% 0.00in /  0mm 46 W/m2
20:24 70.1 °F /  21.2 °C 55 °F /  12.8 °C 29.70in /  1005.6hPa ESE 3.4mph /  5.5km/h 9mph /  14.5km/h 58.9% 0.00in /  0mm 39 W/m2
20:29 69.8 °F /  21 °C 55.1 °F /  12.8 °C 29.70in /  1005.6hPa SE 5.2mph /  8.4km/h 11mph /  17.7km/h 59.7% 0.00in /  0mm 28 W/m2
20:34 69.4 °F /  20.8 °C 54.9 °F /  12.7 °C 29.70in /  1005.6hPa SE 4.7mph /  7.6km/h 12mph /  19.3km/h 60% 0.00in /  0mm 23 W/m2
20:39 69.3 °F /  20.7 °C 55.1 °F /  12.8 °C 29.70in /  1005.6hPa ESE 3.9mph /  6.3km/h 8mph /  12.9km/h 60.5% 0.00in /  0mm 21 W/m2
20:44 69.2 °F /  20.7 °C 55.1 °F /  12.8 °C 29.70in /  1005.6hPa SE 5.3mph /  8.5km/h 10mph /  16.1km/h 61% 0.00in /  0mm 14 W/m2
20:49 68.9 °F /  20.5 °C 55 °F /  12.8 °C 29.70in /  1005.6hPa ESE 4.3mph /  6.9km/h 10mph /  16.1km/h 61.1% 0.00in /  0mm 11 W/m2
20:54 68.7 °F /  20.4 °C 55.2 °F /  12.9 °C 29.70in /  1005.6hPa SE 3.9mph /  6.3km/h 10mph /  16.1km/h 62% 0.00in /  0mm 7 W/m2
20:59 68.6 °F /  20.3 °C 55.1 °F /  12.8 °C 29.70in /  1005.6hPa SE 3.9mph /  6.3km/h 9mph /  14.5km/h 62.1% 0.00in /  0mm 5 W/m2
21:04 68.4 °F /  20.2 °C 55.2 °F /  12.9 °C 29.70in /  1005.6hPa SE 3.8mph /  6.1km/h 10mph /  16.1km/h 62.8% 0.00in /  0mm 0 W/m2
21:09 68.3 °F /  20.2 °C 55.1 °F /  12.8 °C 29.70in /  1005.6hPa ESE 2mph /  3.2km/h 8mph /  12.9km/h 63% 0.00in /  0mm 0 W/m2
21:14 67.9 °F /  19.9 °C 55 °F /  12.8 °C 29.70in /  1005.6hPa ESE 3.6mph /  5.8km/h 10mph /  16.1km/h 63.3% 0.00in /  0mm 0 W/m2
21:19 67.6 °F /  19.8 °C 55 °F /  12.8 °C 29.70in /  1005.6hPa ESE 3.2mph /  5.1km/h 10mph /  16.1km/h 64% 0.00in /  0mm 0 W/m2
21:24 67.5 °F /  19.7 °C 54.9 °F /  12.7 °C 29.70in /  1005.6hPa ESE 4.9mph /  7.9km/h 9mph /  14.5km/h 64.1% 0.00in /  0mm 0 W/m2
21:29 67.1 °F /  19.5 °C 54.9 °F /  12.7 °C 29.70in /  1005.6hPa ESE 2.8mph /  4.5km/h 8mph /  12.9km/h 65% 0.00in /  0mm 0 W/m2
21:34 66.9 °F /  19.4 °C 55.1 °F /  12.8 °C 29.70in /  1005.6hPa East 5.5mph /  8.9km/h 12mph /  19.3km/h 65.6% 0.00in /  0mm 0 W/m2
21:39 66.7 °F /  19.3 °C 55 °F /  12.8 °C 29.70in /  1005.6hPa ESE 3.1mph /  5km/h 8mph /  12.9km/h 66% 0.00in /  0mm 0 W/m2
21:44 66.6 °F /  19.2 °C 54.9 °F /  12.7 °C 29.70in /  1005.6hPa East 4.1mph /  6.6km/h 9mph /  14.5km/h 66% 0.00in /  0mm 0 W/m2
21:49 66.5 °F /  19.2 °C 54.9 °F /  12.7 °C 29.70in /  1005.6hPa ENE 1.7mph /  2.7km/h 7mph /  11.3km/h 66.2% 0.00in /  0mm 0 W/m2
21:54 66.3 °F /  19.1 °C 54.9 °F /  12.7 °C 29.70in /  1005.6hPa East 3.6mph /  5.8km/h 9mph /  14.5km/h 67% 0.00in /  0mm 0 W/m2
21:59 66.1 °F /  18.9 °C 54.8 °F /  12.7 °C 29.70in /  1005.6hPa ESE 2.5mph /  4km/h 9mph /  14.5km/h 67% 0.00in /  0mm 0 W/m2
22:04 66 °F /  18.9 °C 54.7 °F /  12.6 °C 29.70in /  1005.6hPa East 4.3mph /  6.9km/h 13mph /  20.9km/h 67% 0.00in /  0mm 0 W/m2
22:09 65.8 °F /  18.8 °C 55 °F /  12.8 °C 29.70in /  1005.6hPa ESE 4.2mph /  6.8km/h 13mph /  20.9km/h 67.9% 0.00in /  0mm 0 W/m2
22:14 65.7 °F /  18.7 °C 54.9 °F /  12.7 °C 29.70in /  1005.6hPa ESE 3.3mph /  5.3km/h 8mph /  12.9km/h 68% 0.00in /  0mm 0 W/m2
22:19 65.6 °F /  18.7 °C 54.8 °F /  12.7 °C 29.70in /  1005.6hPa ESE 2.9mph /  4.7km/h 8mph /  12.9km/h 68% 0.00in /  0mm 0 W/m2
22:24 65.4 °F /  18.6 °C 54.6 °F /  12.6 °C 29.70in /  1005.6hPa ESE 2.4mph /  3.9km/h 8mph /  12.9km/h 68% 0.00in /  0mm 0 W/m2
22:29 65.2 °F /  18.4 °C 54.8 °F /  12.7 °C 29.70in /  1005.6hPa SE 2.4mph /  3.9km/h 8mph /  12.9km/h 69% 0.00in /  0mm 0 W/m2
22:34 64.9 °F /  18.3 °C 54.5 °F /  12.5 °C 29.70in /  1005.6hPa ESE 3.1mph /  5km/h 9mph /  14.5km/h 69% 0.00in /  0mm 0 W/m2
22:39 64.9 °F /  18.3 °C 54.4 °F /  12.4 °C 29.70in /  1005.6hPa ESE 3.6mph /  5.8km/h 7mph /  11.3km/h 69% 0.00in /  0mm 0 W/m2
22:44 64.7 °F /  18.2 °C 54.2 °F /  12.3 °C 29.70in /  1005.6hPa ESE 4mph /  6.4km/h 9mph /  14.5km/h 69% 0.00in /  0mm 0 W/m2
22:49 64.5 °F /  18.1 °C 54.3 °F /  12.4 °C 29.70in /  1005.6hPa ESE 3.5mph /  5.6km/h 10mph /  16.1km/h 69.9% 0.00in /  0mm 0 W/m2
22:54 64.4 °F /  18 °C 54.3 °F /  12.4 °C 29.70in /  1005.6hPa ESE 5mph /  8km/h 12mph /  19.3km/h 70% 0.00in /  0mm 0 W/m2
22:59 64.4 °F /  18 °C 54.3 °F /  12.4 °C 29.70in /  1005.6hPa ESE 2.9mph /  4.7km/h 12mph /  19.3km/h 70% 0.00in /  0mm 0 W/m2
23:04 64.4 °F /  18 °C 54.3 °F /  12.4 °C 29.70in /  1005.6hPa ESE 3mph /  4.8km/h 8mph /  12.9km/h 70% 0.00in /  0mm 0 W/m2
23:09 64.4 °F /  18 °C 54.3 °F /  12.4 °C 29.70in /  1005.6hPa ESE 4.4mph /  7.1km/h 9mph /  14.5km/h 70% 0.00in /  0mm 0 W/m2
23:14 64.4 °F /  18 °C 54.3 °F /  12.4 °C 29.69in /  1005.3hPa SE 3.3mph /  5.3km/h 11mph /  17.7km/h 70% 0.00in /  0mm 0 W/m2
23:19 64.4 °F /  18 °C 54.3 °F /  12.4 °C 29.69in /  1005.3hPa ESE 5mph /  8km/h 12mph /  19.3km/h 70% 0.00in /  0mm 0 W/m2
23:24 64.4 °F /  18 °C 54.4 °F /  12.4 °C 29.69in /  1005.3hPa SE 3.7mph /  6km/h 13mph /  20.9km/h 70.2% 0.00in /  0mm 0 W/m2
23:29 64.3 °F /  17.9 °C 54.8 °F /  12.7 °C 29.69in /  1005.3hPa SE 4.6mph /  7.4km/h 13mph /  20.9km/h 71% 0.00in /  0mm 0 W/m2
23:34 64.2 °F /  17.9 °C 54.7 °F /  12.6 °C 29.68in /  1005hPa ESE 6mph /  9.7km/h 14mph /  22.5km/h 71% 0.00in /  0mm 0 W/m2
23:39 64.2 °F /  17.9 °C 54.7 °F /  12.6 °C 29.68in /  1005hPa ESE 3.6mph /  5.8km/h 8mph /  12.9km/h 71% 0.00in /  0mm 0 W/m2
23:44 64.2 °F /  17.9 °C 54.7 °F /  12.6 °C 29.68in /  1005hPa ESE 4.2mph /  6.8km/h 9mph /  14.5km/h 71% 0.00in /  0mm 0 W/m2
23:49 64.2 °F /  17.9 °C 54.7 °F /  12.6 °C 29.68in /  1005hPa ESE 3mph /  4.8km/h 7mph /  11.3km/h 71% 0.00in /  0mm 0 W/m2
23:54 64.2 °F /  17.9 °C 54.7 °F /  12.6 °C 29.68in /  1005hPa SE 3.2mph /  5.1km/h 8mph /  12.9km/h 71% 0.00in /  0mm 0 W/m2
23:59 64.1 °F /  17.8 °C 54.6 °F /  12.6 °C 29.68in /  1005hPa ESE 3.4mph /  5.5km/h 8mph /  12.9km/h 71% 0.00in /  0mm 0 W/m2
Bath Spa Weather
Compliments of Weather Underground - 2 mb